Time;durP1;ratioP1;P1;durP2;ratioP2;P2;SDS_P1;SDS_P2;PMS_P1;PMS_P2;Temp;Humidity;BMP_temperature;BMP_pressure;BME280_temperature;BME280_humidity;BME280_pressure;Samples;Min_cycle;Max_cycle;Signal;HPM_P1;HPM_P2
2023/10/22 00:01:25;;;;;;;1.25;1.00;;;;;;;19.15;50.51;92326.34;6097545;23;20009;-90
2023/10/22 00:03:51;;;;;;;0.80;0.80;;;;;;;19.17;50.42;92337.50;6076490;23;20025;-93
2023/10/22 00:06:16;;;;;;;3.88;1.05;;;;;;;19.13;49.96;92339.84;6068326;23;20026;-90
2023/10/22 00:08:42;;;;;;;1.33;1.05;;;;;;;19.13;50.11;92336.38;6083555;23;20022;-91
2023/10/22 00:11:07;;;;;;;2.00;0.80;;;;;;;19.14;50.59;92351.56;6113621;23;20032;-90
2023/10/22 00:13:33;;;;;;;1.50;1.08;;;;;;;19.15;50.16;92350.28;6122647;23;20058;-95
2023/10/22 00:15:59;;;;;;;1.50;1.10;;;;;;;19.16;50.33;92346.25;6098582;23;20017;-91
2023/10/22 00:18:25;;;;;;;1.45;1.00;;;;;;;19.14;50.26;92349.53;6122102;23;20014;-91
2023/10/22 00:20:51;;;;;;;0.88;0.82;;;;;;;19.15;50.29;92355.75;6123168;23;20334;-89
2023/10/22 00:23:16;;;;;;;1.20;1.00;;;;;;;19.12;50.17;92354.84;6121094;23;20097;-91
2023/10/22 00:25:42;;;;;;;1.40;1.20;;;;;;;19.16;50.77;92360.69;6098375;23;20048;-93
2023/10/22 00:28:07;;;;;;;0.77;0.63;;;;;;;19.15;50.31;92361.25;6122096;23;20018;-92
2023/10/22 00:30:34;;;;;;;1.52;1.20;;;;;;;19.14;50.36;92359.78;6146967;23;20346;-91
2023/10/22 00:32:59;;;;;;;1.25;0.90;;;;;;;19.12;49.93;92368.53;6147542;23;20028;-92
2023/10/22 00:35:25;;;;;;;1.20;0.90;;;;;;;19.10;50.05;92365.59;6096984;23;20017;-90
2023/10/22 00:37:50;;;;;;;0.60;0.60;;;;;;;19.15;50.29;92369.47;6147272;23;20024;-92
2023/10/22 00:40:16;;;;;;;1.10;0.77;;;;;;;19.16;50.58;92368.19;6070177;23;20029;-92
2023/10/22 00:42:44;;;;;;;0.65;0.65;;;;;;;19.13;50.11;92377.47;6107664;23;20017;-91
2023/10/22 00:45:09;;;;;;;1.08;0.80;;;;;;;19.13;50.17;92378.22;6106829;23;20014;-92
2023/10/22 00:47:35;;;;;;;1.15;0.82;;;;;;;19.12;50.27;92381.50;6098210;23;20019;-89
2023/10/22 00:50:01;;;;;;;0.93;0.73;;;;;;;19.14;50.44;92385.16;6097846;23;20054;-91
2023/10/22 00:52:26;;;;;;;0.80;0.73;;;;;;;19.14;50.70;92378.94;6096928;23;20443;-91
2023/10/22 00:54:52;;;;;;;0.90;0.77;;;;;;;19.16;50.76;92368.91;6097945;23;20025;-92
2023/10/22 00:57:17;;;;;;;0.60;0.50;;;;;;;19.12;50.10;92376.75;6097318;23;20017;-92
2023/10/22 00:59:43;;;;;;;1.55;0.60;;;;;;;19.13;50.24;92383.69;6097800;23;20037;-90
2023/10/22 01:02:08;;;;;;;0.55;0.55;;;;;;;19.15;50.73;92383.88;6072614;23;20040;-91
2023/10/22 01:04:33;;;;;;;0.70;0.60;;;;;;;19.11;50.19;92383.50;6097356;23;20442;-91
2023/10/22 01:07:00;;;;;;;0.82;0.75;;;;;;;19.13;50.57;92385.69;6122355;23;20018;-90
2023/10/22 01:09:25;;;;;;;1.33;0.95;;;;;;;19.12;50.23;92397.94;6096806;23;20446;-91
2023/10/22 01:12:01;;;;;;;1.08;0.75;;;;;;;19.11;50.37;92386.22;6121948;23;20054;-90
2023/10/22 01:14:26;;;;;;;1.00;0.75;;;;;;;19.13;50.76;92397.38;6120040;23;20048;-90
2023/10/22 01:16:52;;;;;;;0.98;0.70;;;;;;;19.13;51.05;92382.97;6097632;23;20454;-90
2023/10/22 01:19:17;;;;;;;0.75;0.60;;;;;;;19.13;50.57;92389.16;6097383;23;20017;-90
2023/10/22 01:21:43;;;;;;;0.82;0.73;;;;;;;19.14;50.61;92390.63;6121959;23;20407;-92
2023/10/22 01:24:12;;;;;;;1.33;0.88;;;;;;;19.14;50.56;92381.69;6095842;23;20021;-91
2023/10/22 01:26:44;;;;;;;0.77;0.65;;;;;;;19.11;50.86;92393.72;6123055;23;20048;-89
2023/10/22 01:29:10;;;;;;;1.25;0.60;;;;;;;19.14;50.72;92381.69;6097127;23;20010;-91
2023/10/22 01:31:36;;;;;;;0.63;0.60;;;;;;;19.13;50.87;92380.22;6097574;23;20105;-92
2023/10/22 01:34:01;;;;;;;0.50;0.50;;;;;;;19.11;50.88;92380.75;6097102;23;20017;-93
2023/10/22 01:36:27;;;;;;;0.82;0.75;;;;;;;19.12;50.66;92401.41;6120397;23;20021;-92
2023/10/22 01:38:52;;;;;;;0.68;0.68;;;;;;;19.11;50.58;92399.94;6098310;23;20076;-91
2023/10/22 01:41:18;;;;;;;0.77;0.60;;;;;;;19.11;51.03;92399.94;6096440;23;20075;-92
2023/10/22 01:43:43;;;;;;;0.85;0.50;;;;;;;19.10;51.13;92397.72;6099116;23;20017;-93
2023/10/22 01:46:08;;;;;;;0.73;0.68;;;;;;;19.08;50.47;92411.97;6107981;23;20041;-89
2023/10/22 01:48:34;;;;;;;0.93;0.70;;;;;;;19.08;50.42;92413.97;6124167;23;20017;-90
2023/10/22 01:50:59;;;;;;;0.85;0.60;;;;;;;19.09;50.34;92407.22;6124428;23;20018;-91
2023/10/22 01:53:25;;;;;;;0.98;0.60;;;;;;;19.09;50.65;92404.47;6098501;23;20033;-92
2023/10/22 01:55:50;;;;;;;1.00;0.68;;;;;;;19.07;49.95;92407.03;6123323;23;20017;-91
2023/10/22 01:58:16;;;;;;;0.90;0.65;;;;;;;19.09;50.40;92404.47;6122584;23;20548;-90
2023/10/22 02:00:41;;;;;;;1.95;0.60;;;;;;;19.12;50.94;92409.63;6123670;23;20341;-93
2023/10/22 02:03:07;;;;;;;0.85;0.60;;;;;;;19.10;50.71;92419.66;6122818;23;20028;-93
2023/10/22 02:05:33;;;;;;;0.75;0.60;;;;;;;19.08;50.02;92417.44;6123451;23;20025;-91
2023/10/22 02:07:58;;;;;;;0.70;0.50;;;;;;;19.11;50.46;92421.84;6124285;23;20631;-90
2023/10/22 02:10:24;;;;;;;1.00;0.57;;;;;;;19.10;50.37;92428.59;6098067;23;20025;-91
2023/10/22 02:12:50;;;;;;;1.05;0.68;;;;;;;19.12;50.33;92431.53;6122830;23;20100;-91
2023/10/22 02:15:16;;;;;;;0.77;0.60;;;;;;;19.11;50.49;92440.28;6123025;23;20570;-89
2023/10/22 02:17:41;;;;;;;0.85;0.60;;;;;;;19.11;51.14;92446.50;6123803;23;20088;-91
2023/10/22 02:20:08;;;;;;;0.57;0.47;;;;;;;19.10;50.68;92447.78;6122926;23;20371;-89
2023/10/22 02:22:34;;;;;;;0.50;0.50;;;;;;;19.11;50.15;92462.22;6099901;23;20017;-89
2023/10/22 02:25:00;;;;;;;0.73;0.38;;;;;;;19.11;50.46;92459.47;6123518;23;20101;-92
2023/10/22 02:27:25;;;;;;;0.47;0.47;;;;;;;19.10;50.42;92469.69;6123166;23;20357;-90
2023/10/22 02:29:51;;;;;;;0.50;0.50;;;;;;;19.11;50.51;92467.69;6125147;23;20021;-91
2023/10/22 02:32:16;;;;;;;0.40;0.40;;;;;;;19.06;50.17;92477.50;6122161;23;20029;-91
2023/10/22 02:34:42;;;;;;;0.40;0.40;;;;;;;19.08;50.42;92485.19;6098795;23;20014;-90
2023/10/22 02:37:07;;;;;;;0.60;0.55;;;;;;;19.07;50.18;92484.47;6123073;23;20018;-91
2023/10/22 02:39:32;;;;;;;0.35;0.30;;;;;;;19.07;50.00;92481.72;6123976;23;20323;-93
2023/10/22 02:41:58;;;;;;;0.65;0.55;;;;;;;19.07;50.13;92486.47;6099140;23;20398;-90
2023/10/22 02:44:23;;;;;;;0.50;0.40;;;;;;;19.06;50.29;92491.22;6121989;23;20355;-91
2023/10/22 02:46:49;;;;;;;0.40;0.40;;;;;;;19.11;50.36;92497.81;6122810;23;20021;-92
2023/10/22 02:49:18;;;;;;;0.40;0.40;;;;;;;19.08;49.87;92491.41;6122954;23;20068;-93
2023/10/22 02:51:43;;;;;;;0.60;0.40;;;;;;;19.09;50.12;92500.34;6124235;23;20021;-92
2023/10/22 02:54:08;;;;;;;0.32;0.32;;;;;;;19.06;49.88;92499.41;6121403;23;20021;-94
2023/10/22 02:56:34;;;;;;;0.93;0.70;;;;;;;19.07;49.92;92513.84;6123432;23;20013;-91
2023/10/22 02:58:59;;;;;;;0.70;0.70;;;;;;;19.07;50.20;92509.09;6123628;23;20022;-92
2023/10/22 03:01:26;;;;;;;0.68;0.50;;;;;;;19.08;50.23;92516.06;6122588;23;20205;-90
2023/10/22 03:03:52;;;;;;;0.80;0.60;;;;;;;19.07;50.08;92522.81;6123688;23;20018;-92
2023/10/22 03:06:17;;;;;;;0.55;0.50;;;;;;;19.06;50.03;92513.13;6097285;23;20044;-92
2023/10/22 03:08:43;;;;;;;0.65;0.45;;;;;;;19.07;50.09;92525.53;6123670;23;20017;-92
2023/10/22 03:11:18;;;;;;;0.45;0.45;;;;;;;19.07;50.30;92522.06;6121913;23;20026;-92
2023/10/22 03:13:45;;;;;;;0.43;0.40;;;;;;;19.08;50.22;92529.03;6148342;23;20112;-91
2023/10/22 03:16:17;;;;;;;0.82;0.50;;;;;;;19.08;50.36;92529.03;6097272;23;20434;-90
2023/10/22 03:18:45;;;;;;;0.65;0.60;;;;;;;19.07;50.16;92531.03;6125125;23;20026;-94
2023/10/22 03:21:11;;;;;;;0.43;0.43;;;;;;;19.07;50.10;92541.25;6122645;23;20022;-91
2023/10/22 03:23:43;;;;;;;1.00;0.50;;;;;;;19.05;50.22;92541.78;6123044;23;20041;-91
2023/10/22 03:26:11;;;;;;;0.30;0.30;;;;;;;19.06;50.20;92542.50;6099001;23;20017;-93
2023/10/22 03:28:37;;;;;;;0.50;0.50;;;;;;;19.04;50.28;92537.59;6125187;23;20025;-90
2023/10/22 03:31:03;;;;;;;0.47;0.40;;;;;;;19.07;50.02;92549.47;6098705;23;20013;-91
2023/10/22 03:33:29;;;;;;;0.40;0.40;;;;;;;19.04;50.22;92554.03;6123743;23;20019;-92
2023/10/22 03:35:54;;;;;;;0.73;0.45;;;;;;;19.06;50.22;92551.47;6099232;23;20570;-91
2023/10/22 03:38:20;;;;;;;0.40;0.40;;;;;;;19.07;50.23;92552.19;6122566;23;20165;-91
2023/10/22 03:40:45;;;;;;;0.70;0.45;;;;;;;19.05;50.18;92554.78;6124442;23;20021;-92
2023/10/22 03:43:11;;;;;;;0.38;0.38;;;;;;;19.06;50.02;92553.47;6123301;23;20021;-90
2023/10/22 03:45:37;;;;;;;0.40;0.40;;;;;;;19.05;50.47;92552.72;6124184;23;20365;-90
2023/10/22 03:48:03;;;;;;;0.50;0.40;;;;;;;19.05;50.17;92555.47;6123889;23;20025;-90
2023/10/22 03:50:29;;;;;;;0.82;0.50;;;;;;;19.03;49.94;92557.31;6123554;23;20021;-92
2023/10/22 03:52:55;;;;;;;0.30;0.30;;;;;;;19.07;50.29;92563.16;6123962;23;20021;-93
2023/10/22 03:55:20;;;;;;;0.40;0.40;;;;;;;19.06;50.11;92573.38;6122924;23;20025;-91
2023/10/22 03:57:45;;;;;;;0.30;0.30;;;;;;;19.01;50.13;92568.78;6124196;23;20596;-91
2023/10/22 04:00:11;;;;;;;0.63;0.47;;;;;;;19.04;50.09;92567.72;6122627;23;20071;-92
2023/10/22 04:02:37;;;;;;;0.75;0.40;;;;;;;19.05;49.97;92576.69;6124948;23;20021;-91
2023/10/22 04:05:03;;;;;;;0.40;0.30;;;;;;;19.05;50.29;92573.94;6122089;23;20036;-91
2023/10/22 04:07:30;;;;;;;0.60;0.40;;;;;;;19.05;50.05;92565.72;6123040;23;20353;-92
2023/10/22 04:09:56;;;;;;;0.45;0.45;;;;;;;19.03;50.17;92566.25;6124428;23;20013;-90
2023/10/22 04:12:22;;;;;;;1.67;0.50;;;;;;;19.04;50.28;92578.69;6121896;23;21445;-91
2023/10/22 04:14:47;;;;;;;0.88;0.40;;;;;;;19.03;50.65;92579.22;6148558;23;20013;-89
2023/10/22 04:17:13;;;;;;;0.38;0.38;;;;;;;19.04;50.49;92580.69;6123196;23;20291;-91
2023/10/22 04:19:38;;;;;;;0.80;0.40;;;;;;;19.07;50.43;92582.34;6124476;23;20025;-93
2023/10/22 04:22:04;;;;;;;0.40;0.40;;;;;;;19.04;50.10;92594.38;6147512;23;20021;-91
2023/10/22 04:24:29;;;;;;;0.50;0.50;;;;;;;19.03;50.22;92601.13;6123686;23;20075;-91
2023/10/22 04:26:55;;;;;;;0.90;0.63;;;;;;;19.05;50.64;92609.56;6098404;23;20014;-91
2023/10/22 04:29:21;;;;;;;1.15;0.95;;;;;;;19.04;50.49;92608.81;6121997;23;20035;-91
2023/10/22 04:31:47;;;;;;;0.30;0.30;;;;;;;19.04;50.17;92611.56;6122806;23;20029;-90
2023/10/22 04:34:12;;;;;;;0.38;0.35;;;;;;;19.05;50.04;92612.28;6121941;23;20389;-93
2023/10/22 04:36:38;;;;;;;0.70;0.43;;;;;;;19.05;49.83;92613.00;6097614;23;20021;-92
2023/10/22 04:39:03;;;;;;;0.43;0.40;;;;;;;19.05;50.37;92628.72;6122059;23;20018;-92
2023/10/22 04:41:28;;;;;;;0.55;0.50;;;;;;;19.06;50.15;92619.22;6097865;23;20014;-93
2023/10/22 04:43:54;;;;;;;0.40;0.40;;;;;;;19.05;50.27;92632.16;6122981;23;20013;-92
2023/10/22 04:46:20;;;;;;;0.30;0.30;;;;;;;19.01;49.99;92629.06;6121032;23;20029;-93
2023/10/22 04:48:45;;;;;;;0.38;0.32;;;;;;;19.01;49.97;92631.78;6097573;23;20536;-91
2023/10/22 04:51:11;;;;;;;0.60;0.50;;;;;;;19.02;50.23;92638.75;6120974;23;20018;-91
2023/10/22 04:53:36;;;;;;;0.45;0.45;;;;;;;19.03;49.94;92634.75;6122763;23;20040;-91
2023/10/22 04:56:02;;;;;;;0.40;0.40;;;;;;;19.02;50.44;92641.47;6122001;23;20020;-91
2023/10/22 04:58:32;;;;;;;0.77;0.60;;;;;;;19.02;49.88;92638.00;6121280;23;20382;-91
2023/10/22 05:00:58;;;;;;;0.50;0.45;;;;;;;19.02;49.90;92643.50;6123418;23;20029;-90
2023/10/22 05:03:23;;;;;;;0.38;0.38;;;;;;;19.01;50.25;92644.75;6121055;23;20009;-93
2023/10/22 05:05:49;;;;;;;0.45;0.35;;;;;;;19.01;50.20;92648.22;6098344;23;20020;-89
2023/10/22 05:08:14;;;;;;;0.52;0.40;;;;;;;19.03;50.05;92659.38;6120724;23;20029;-90
2023/10/22 05:10:40;;;;;;;0.50;0.50;;;;;;;19.03;50.31;92650.44;6098032;23;20021;-90
2023/10/22 05:13:07;;;;;;;0.82;0.70;;;;;;;19.02;50.31;92662.66;6097476;23;20441;-91
2023/10/22 05:15:32;;;;;;;0.30;0.30;;;;;;;19.01;50.13;92652.97;6098027;23;20472;-93
2023/10/22 05:17:57;;;;;;;0.68;0.60;;;;;;;19.02;50.54;92670.88;6122233;23;20017;-91
2023/10/22 05:20:29;;;;;;;0.47;0.47;;;;;;;19.01;50.29;92663.94;6121519;23;20028;-89
2023/10/22 05:22:54;;;;;;;0.50;0.50;;;;;;;19.02;50.66;92674.34;6122521;23;20013;-92
2023/10/22 05:25:21;;;;;;;0.55;0.50;;;;;;;19.02;50.84;92688.06;6120638;23;20318;-90
2023/10/22 05:27:47;;;;;;;0.45;0.30;;;;;;;19.02;50.16;92677.09;6122497;23;20017;-93
2023/10/22 05:30:13;;;;;;;0.50;0.40;;;;;;;19.01;50.13;92678.34;6121583;23;20523;-90
2023/10/22 05:32:40;;;;;;;0.30;0.30;;;;;;;19.01;50.18;92686.56;6121933;23;20018;-92
2023/10/22 05:35:06;;;;;;;1.52;0.30;;;;;;;19.01;50.60;92694.78;6121774;23;20442;-89
2023/10/22 05:37:32;;;;;;;0.50;0.45;;;;;;;18.99;50.14;92691.09;6097010;23;20013;-92
2023/10/22 05:39:57;;;;;;;0.98;0.52;;;;;;;19.00;50.58;92692.59;6098176;23;20017;-90
2023/10/22 05:42:23;;;;;;;0.60;0.40;;;;;;;19.03;50.04;92699.75;6145994;23;20505;-91
2023/10/22 05:44:48;;;;;;;0.28;0.28;;;;;;;19.01;50.19;92705.00;6122413;23;20013;-90
2023/10/22 05:47:14;;;;;;;0.35;0.30;;;;;;;19.00;50.32;92700.81;6118409;23;20025;-92
2023/10/22 05:49:40;;;;;;;0.40;0.40;;;;;;;19.00;50.35;92711.75;6112253;23;20152;-92
2023/10/22 05:52:05;;;;;;;0.35;0.30;;;;;;;18.99;50.48;92711.03;6092400;23;20021;-91
2023/10/22 05:54:31;;;;;;;0.38;0.30;;;;;;;19.01;50.62;92713.22;6117939;23;20101;-93
2023/10/22 05:56:56;;;;;;;0.63;0.57;;;;;;;19.01;50.49;92726.94;6093397;23;20069;-89
2023/10/22 05:59:22;;;;;;;0.50;0.50;;;;;;;18.98;50.37;92723.25;6124448;23;20049;-89
2023/10/22 06:01:47;;;;;;;0.32;0.32;;;;;;;19.00;50.40;92733.66;6085479;23;20025;-90
2023/10/22 06:04:13;;;;;;;0.40;0.40;;;;;;;18.99;50.01;92741.16;6110789;23;20022;-90
2023/10/22 06:06:47;;;;;;;0.35;0.35;;;;;;;18.97;50.71;92737.47;6091005;23;20024;-91
2023/10/22 06:09:12;;;;;;;0.40;0.40;;;;;;;18.97;50.33;92740.22;6114572;23;20029;-90
2023/10/22 06:11:39;;;;;;;0.38;0.30;;;;;;;18.96;50.31;92744.94;6116399;23;20025;-91
2023/10/22 06:14:06;;;;;;;0.30;0.30;;;;;;;18.99;50.55;92752.09;6114033;23;20113;-90
2023/10/22 06:16:31;;;;;;;0.40;0.40;;;;;;;18.99;50.37;92757.59;6138536;23;20446;-92
2023/10/22 06:18:57;;;;;;;0.30;0.30;;;;;;;18.97;50.17;92760.13;6090529;23;20061;-90
2023/10/22 06:21:22;;;;;;;0.20;0.20;;;;;;;18.95;49.87;92765.38;6135569;23;20025;-89
2023/10/22 06:23:49;;;;;;;0.57;0.50;;;;;;;18.96;50.03;92769.59;6088117;23;20021;-90
2023/10/22 06:26:14;;;;;;;0.30;0.28;;;;;;;18.96;50.33;92772.34;6109191;23;20025;-89
2023/10/22 06:28:40;;;;;;;0.20;0.20;;;;;;;18.98;50.08;92775.28;6084426;23;20345;-90
2023/10/22 06:31:07;;;;;;;0.30;0.30;;;;;;;18.99;50.13;92778.75;6120952;23;20013;-92
2023/10/22 06:33:33;;;;;;;0.30;0.30;;;;;;;18.97;50.33;92784.03;6108786;23;20033;-91
2023/10/22 06:35:59;;;;;;;0.47;0.40;;;;;;;18.98;50.37;92791.72;6108474;23;20028;-90
2023/10/22 06:38:24;;;;;;;0.43;0.30;;;;;;;18.98;50.03;92791.72;6083057;23;20021;-92
2023/10/22 06:40:50;;;;;;;0.35;0.35;;;;;;;19.00;50.47;92796.66;6133255;23;20022;-89
2023/10/22 06:43:15;;;;;;;0.68;0.38;;;;;;;18.97;50.10;92786.78;6106454;23;20338;-89
2023/10/22 06:45:40;;;;;;;0.30;0.30;;;;;;;18.99;49.86;92792.47;6105363;23;20029;-90
2023/10/22 06:48:06;;;;;;;0.40;0.40;;;;;;;18.98;49.75;92797.19;6103788;23;20022;-90
2023/10/22 06:50:32;;;;;;;0.40;0.40;;;;;;;18.99;50.12;92798.66;6104068;23;20235;-93
2023/10/22 06:52:57;;;;;;;0.30;0.30;;;;;;;18.97;50.03;92792.97;6079775;23;20025;-90
2023/10/22 06:55:22;;;;;;;0.98;0.40;;;;;;;19.00;50.58;92804.88;6103501;23;20075;-89
2023/10/22 06:57:48;;;;;;;0.30;0.30;;;;;;;18.99;50.00;92806.16;6126725;23;20393;-90
2023/10/22 07:00:14;;;;;;;0.30;0.30;;;;;;;18.99;49.99;92811.63;6125372;23;20022;-92
2023/10/22 07:02:39;;;;;;;0.30;0.30;;;;;;;18.99;50.51;92817.84;6079207;23;20017;-91
2023/10/22 07:05:10;;;;;;;0.13;0.13;;;;;;;19.00;50.20;92818.59;6101687;23;20438;-90
2023/10/22 07:07:35;;;;;;;;;;;;;;;19.01;49.98;92820.78;6127055;23;20025;-91
2023/10/22 07:10:01;;;;;;;0.30;0.30;;;;;;;18.97;49.80;92817.63;6101646;23;19919;-91
2023/10/22 07:12:26;;;;;;;0.50;0.40;;;;;;;19.00;50.07;92818.59;6100661;23;20017;-92
2023/10/22 07:14:51;;;;;;;0.40;0.32;;;;;;;18.99;49.80;92823.31;6126624;23;20036;-92
2023/10/22 07:17:17;;;;;;;0.30;0.30;;;;;;;18.96;49.97;92821.63;6100442;23;20356;-89
2023/10/22 07:19:42;;;;;;;0.30;0.30;;;;;;;18.97;50.58;92819.63;6100499;23;20025;-91
2023/10/22 07:22:08;;;;;;;0.35;0.35;;;;;;;18.99;50.41;92819.84;6100806;23;20479;-90
2023/10/22 07:24:34;;;;;;;0.30;0.30;;;;;;;18.95;49.74;92822.91;6125494;23;20018;-91
2023/10/22 07:26:59;;;;;;;0.40;0.28;;;;;;;18.99;50.16;92819.84;6101363;23;20026;-91
2023/10/22 07:29:25;;;;;;;0.73;0.55;;;;;;;18.98;49.81;92827.31;6099076;23;20381;-90
2023/10/22 07:31:51;;;;;;;0.70;0.40;;;;;;;18.99;49.64;92823.31;6076955;23;20488;-92
2023/10/22 07:34:17;;;;;;;0.40;0.40;;;;;;;18.99;50.06;92825.31;6099171;23;20224;-92
2023/10/22 07:36:42;;;;;;;0.80;0.30;;;;;;;18.96;49.94;92824.38;6124388;23;20480;-91
2023/10/22 07:39:08;;;;;;;0.65;0.47;;;;;;;18.95;49.76;92822.91;6098671;23;20017;-93
2023/10/22 07:41:33;;;;;;;0.60;0.40;;;;;;;18.99;50.50;92825.31;6076137;23;20072;-93
2023/10/22 07:43:59;;;;;;;0.20;0.20;;;;;;;19.00;49.82;92826.81;6100248;23;20029;-92
2023/10/22 07:46:25;;;;;;;0.40;0.40;;;;;;;18.99;50.06;92828.06;6086272;23;20326;-94
2023/10/22 07:48:50;;;;;;;0.77;0.40;;;;;;;18.99;49.99;92833.53;6123628;23;20105;-90
2023/10/22 07:51:17;;;;;;;0.22;0.22;;;;;;;18.97;49.74;92834.06;6070991;23;20418;-90
2023/10/22 07:53:43;;;;;;;0.57;0.45;;;;;;;19.01;49.67;92828.28;6094593;23;20536;-92
2023/10/22 07:56:09;;;;;;;0.30;0.30;;;;;;;19.02;50.06;92832.50;6089253;23;20022;-93
2023/10/22 07:58:34;;;;;;;0.30;0.30;;;;;;;19.02;50.12;92835.22;6094394;23;20018;-92
2023/10/22 08:01:00;;;;;;;0.35;0.25;;;;;;;18.99;50.09;92831.53;6099737;23;20040;-92
2023/10/22 08:03:31;;;;;;;0.30;0.30;;;;;;;19.01;50.27;92834.50;6122804;23;20017;-91
2023/10/22 08:05:57;;;;;;;1.10;0.40;;;;;;;19.03;50.19;92842.19;6100198;23;20009;-90
2023/10/22 08:08:22;;;;;;;0.45;0.20;;;;;;;19.02;50.43;92840.72;6122188;23;20045;-91
2023/10/22 08:10:48;;;;;;;0.20;0.20;;;;;;;19.03;49.66;92853.88;6077285;23;20021;-91
2023/10/22 08:13:13;;;;;;;0.30;0.30;;;;;;;19.01;50.23;92841.97;6068435;23;20022;-89
2023/10/22 08:15:39;;;;;;;0.60;0.40;;;;;;;19.03;49.97;92853.13;6069977;23;20025;-91
2023/10/22 08:18:04;;;;;;;0.30;0.30;;;;;;;19.03;50.19;92842.91;6137791;23;20030;-94
2023/10/22 08:20:32;;;;;;;0.65;0.43;;;;;;;19.03;49.58;92855.88;6079985;23;20022;-92
2023/10/22 08:22:57;;;;;;;0.35;0.30;;;;;;;19.03;50.12;92850.41;6070313;23;20410;-92
2023/10/22 08:25:23;;;;;;;0.30;0.30;;;;;;;19.02;49.46;92857.16;6091301;23;20014;-91
2023/10/22 08:27:48;;;;;;;0.40;0.40;;;;;;;19.03;50.05;92855.88;6070453;23;20021;-92
2023/10/22 08:30:14;;;;;;;0.30;0.30;;;;;;;19.04;50.13;92854.63;6103908;23;20036;-92
2023/10/22 08:32:45;;;;;;;0.30;0.30;;;;;;;19.05;50.25;92859.53;6123481;23;20472;-91
2023/10/22 08:35:11;;;;;;;0.30;0.30;;;;;;;19.06;50.02;92854.81;6073844;23;20022;-93
2023/10/22 08:37:37;;;;;;;0.30;0.30;;;;;;;19.06;49.97;92863.00;6093721;23;20088;-92
2023/10/22 08:40:07;;;;;;;0.20;0.20;;;;;;;19.08;50.17;92860.50;6065060;23;20021;-89
2023/10/22 08:42:32;;;;;;;0.30;0.30;;;;;;;19.09;50.46;92870.91;6070816;23;20315;-91
2023/10/22 08:44:58;;;;;;;0.52;0.40;;;;;;;19.10;50.58;92866.91;6148477;23;20310;-93
2023/10/22 08:47:23;;;;;;;0.40;0.30;;;;;;;19.10;49.63;92877.13;6097671;23;20084;-92
2023/10/22 08:49:49;;;;;;;0.22;0.20;;;;;;;19.09;50.26;92873.66;6076840;23;20014;-89
2023/10/22 08:52:14;;;;;;;0.43;0.30;;;;;;;19.10;50.60;92875.13;6118473;23;20021;-93
2023/10/22 08:54:40;;;;;;;0.30;0.30;;;;;;;19.11;50.46;92873.13;6104151;23;20033;-91
2023/10/22 08:57:05;;;;;;;0.28;0.25;;;;;;;19.11;49.62;92878.63;6069586;23;20041;-92
2023/10/22 08:59:34;;;;;;;0.30;0.30;;;;;;;19.10;49.74;92877.88;6093388;23;20029;-93
2023/10/22 09:01:59;;;;;;;0.30;0.30;;;;;;;19.10;49.95;92877.88;6112045;23;20109;-94
2023/10/22 09:04:25;;;;;;;0.50;0.40;;;;;;;19.11;49.61;92870.41;6068047;23;20028;-93
2023/10/22 09:06:53;;;;;;;0.20;0.20;;;;;;;19.12;50.09;92886.31;6068868;23;20053;-93
2023/10/22 09:09:28;;;;;;;0.70;0.30;;;;;;;19.13;50.35;92884.31;6106194;23;20044;-93
2023/10/22 09:11:55;;;;;;;0.52;0.30;;;;;;;19.11;49.70;92879.34;6121918;23;20028;-92
2023/10/22 09:14:21;;;;;;;0.20;0.20;;;;;;;19.13;50.10;92892.53;6121345;23;20013;-91
2023/10/22 09:16:46;;;;;;;0.47;0.30;;;;;;;19.11;49.74;92893.06;6122686;23;20417;-92
2023/10/22 09:19:12;;;;;;;0.63;0.63;;;;;;;19.13;50.03;92881.56;6121501;23;20044;-92
2023/10/22 09:21:44;;;;;;;0.55;0.20;;;;;;;19.12;49.87;92891.06;6122356;23;20087;-93
2023/10/22 09:24:10;;;;;;;0.30;0.30;;;;;;;19.11;49.42;92884.84;6145676;23;20361;-93
2023/10/22 09:26:47;;;;;;;0.63;0.32;;;;;;;19.13;49.63;92892.53;6079692;23;20017;-93
2023/10/22 09:29:13;;;;;;;0.25;0.20;;;;;;;19.14;50.15;92888.53;6092810;23;20014;-94
2023/10/22 09:31:38;;;;;;;0.35;0.30;;;;;;;19.14;49.72;92894.00;6092828;23;20760;-90
2023/10/22 09:34:04;;;;;;;0.73;0.40;;;;;;;19.14;49.97;92902.22;6116046;23;20029;-93
2023/10/22 09:36:29;;;;;;;0.70;0.30;;;;;;;19.13;49.77;92898.75;6092674;23;20014;-91
2023/10/22 09:38:55;;;;;;;0.20;0.20;;;;;;;19.13;49.70;92903.47;6068961;23;20029;-90
2023/10/22 09:41:30;;;;;;;0.20;0.20;;;;;;;19.15;49.47;92903.69;6155558;23;20022;-91
2023/10/22 09:43:58;;;;;;;0.43;0.30;;;;;;;19.16;50.42;92910.66;6148572;23;20084;-92
2023/10/22 09:46:30;;;;;;;0.30;0.30;;;;;;;19.15;49.84;92904.44;6121851;23;20350;-93
2023/10/22 09:49:00;;;;;;;1.10;0.30;;;;;;;19.20;49.21;92908.34;6127398;23;20034;-92
2023/10/22 09:51:30;;;;;;;1.47;1.20;;;;;;;19.20;49.96;92908.34;6148625;23;20080;-93
2023/10/22 09:53:55;;;;;;;0.30;0.30;;;;;;;19.18;49.45;92908.88;6126842;23;20088;-93
2023/10/22 09:56:21;;;;;;;0.30;0.30;;;;;;;19.17;49.56;92917.59;6131651;23;20515;-90
2023/10/22 09:58:48;;;;;;;0.30;0.30;;;;;;;19.20;49.95;92915.81;6125696;23;20466;-93
2023/10/22 10:01:14;;;;;;;0.30;0.30;;;;;;;19.20;49.82;92911.06;6125298;23;20025;-91
2023/10/22 10:03:40;;;;;;;0.40;0.40;;;;;;;19.20;49.82;92910.34;6079846;23;20040;-90
2023/10/22 10:06:06;;;;;;;0.55;0.50;;;;;;;19.20;49.98;92902.84;6098252;23;20025;-90
2023/10/22 10:08:33;;;;;;;0.80;0.68;;;;;;;19.20;50.03;92913.06;6096908;23;20017;-91
2023/10/22 10:10:59;;;;;;;1.52;1.10;;;;;;;19.21;50.17;92915.28;6120289;23;20493;-91
2023/10/22 10:13:24;;;;;;;1.30;1.20;;;;;;;19.20;49.92;92907.59;6124267;23;20052;-91
2023/10/22 10:15:59;;;;;;;1.92;1.50;;;;;;;19.17;49.58;92910.13;6103206;23;20036;-94
2023/10/22 10:19:03;;;;;;;1.35;1.15;;;;;;;19.18;50.20;92891.69;6095751;23;20072;-92
2023/10/22 10:21:36;;;;;;;4.80;1.95;;;;;;;19.18;49.90;92905.38;6072656;23;20049;-91
2023/10/22 10:24:20;;;;;;;1.45;1.17;;;;;;;19.19;50.14;92906.88;6145858;23;20029;-90
2023/10/22 10:26:46;;;;;;;1.42;1.13;;;;;;;19.18;49.83;92900.63;6174247;23;20036;-92
2023/10/22 10:29:18;;;;;;;1.98;1.40;;;;;;;19.18;49.84;92908.13;6124965;23;20018;-92
2023/10/22 10:31:45;;;;;;;1.88;1.42;;;;;;;19.20;50.08;92902.13;6126113;23;20442;-91
2023/10/22 10:34:34;;;;;;;2.10;1.80;;;;;;;19.17;49.76;92901.91;6124457;23;20021;-91
2023/10/22 10:37:10;;;;;;;2.53;1.80;;;;;;;19.16;50.04;92894.94;6128044;23;20018;-90
2023/10/22 10:39:36;;;;;;;2.58;1.90;;;;;;;19.18;50.17;92891.69;6148983;23;20036;-89
2023/10/22 10:42:02;;;;;;;1.67;1.55;;;;;;;19.17;49.35;92901.16;6149421;23;20025;-90
2023/10/22 10:44:30;;;;;;;2.35;1.65;;;;;;;19.18;49.74;92891.69;6124393;23;20135;-92
2023/10/22 10:47:21;;;;;;;2.45;2.10;;;;;;;19.18;49.93;92892.41;6100761;23;20018;-93
2023/10/22 10:50:11;;;;;;;2.42;2.17;;;;;;;19.18;49.50;92888.94;6173862;23;20032;-90
2023/10/22 10:52:37;;;;;;;2.50;2.03;;;;;;;19.18;49.99;92897.91;6149743;23;20041;-92
2023/10/22 10:55:15;;;;;;;3.25;2.15;;;;;;;19.18;49.80;92895.16;6147621;23;20032;-94
2023/10/22 10:57:45;;;;;;;2.33;1.73;;;;;;;19.20;49.85;92888.41;6148882;23;20499;-90
2023/10/22 11:00:19;;;;;;;4.72;3.03;;;;;;;19.18;50.02;92895.16;6123333;23;20029;-89
2023/10/22 11:02:47;;;;;;;4.18;3.55;;;;;;;19.20;50.02;92882.94;6125692;23;20044;-92
2023/10/22 11:05:13;;;;;;;2.90;2.40;;;;;;;19.18;49.74;92880.72;6148172;23;20014;-91
2023/10/22 11:07:42;;;;;;;2.05;1.85;;;;;;;19.18;50.00;92884.19;6099777;23;20027;-93
2023/10/22 11:10:12;;;;;;;2.88;2.25;;;;;;;19.18;49.63;92883.47;6124344;23;20026;-93
2023/10/22 11:12:38;;;;;;;3.95;2.05;;;;;;;19.20;50.13;92891.16;6124657;23;20029;-92
2023/10/22 11:15:05;;;;;;;2.42;2.00;;;;;;;19.18;49.62;92892.41;6148333;23;20100;-93
2023/10/22 11:17:30;;;;;;;3.28;2.65;;;;;;;19.21;49.75;92893.38;6124939;23;20018;-92
2023/10/22 11:19:56;;;;;;;2.90;2.60;;;;;;;19.19;50.74;92893.16;6125143;23;20138;-92
2023/10/22 11:22:21;;;;;;;2.70;2.50;;;;;;;19.19;50.21;92893.16;6124580;23;20081;-92
2023/10/22 11:24:47;;;;;;;7.18;3.83;;;;;;;19.21;50.08;92903.59;6127155;23;20072;-91
2023/10/22 11:27:12;;;;;;;4.65;3.90;;;;;;;19.18;49.87;92899.91;6101754;23;20025;-93
2023/10/22 11:29:43;;;;;;;3.70;3.40;;;;;;;19.18;49.89;92888.94;6102593;23;20022;-90
2023/10/22 11:32:14;;;;;;;2.92;2.63;;;;;;;19.19;50.00;92893.16;6101839;23;20052;-90